Historyczne dane pomiarowe

Dodano dane terminowe – wersja testowa.

Dane z okresu 1951-2019

Wersja bazy: 1.34 [2019-03-16, lista zmian], aktualizacja planowana na 2019-04-15

Dane meteo z obszaru Polski uzyskane na podstawie danych udostępnionych przez Instytut Meteorologii i Gospodarki Wodnej – Państwowy Instytut Badawczy.

 

Wybierz Datę:    

       

TemperaturaWilgotnośćWiatrCiśnienieOpadyŚniegCzas trwania zjawisk
 Stacja t tx tn tng RH VA  wxwx mslp ppp RRR   cm mm wxwxwxwxwxwxwx
1959-10-10 4.2 14.4 -4.0 -8.0 73.5- 1.0 0.7---- 0.0------------
1959-10-09 6.8 13.6 3.2 0.6 71.8- 3.0 2.7---- 0.0------------
1959-10-08 9.2 18.2 0.5 -4.5 74.0- 0.7 1.3---- 0.0------------
1959-10-07 8.7 19.3 0.4 -4.0 63.0- 1.7 2.3---- 0.0------------
1959-10-06 6.5 14.9 -2.0 -5.5 63.0- 3.3 1.0---- 0.0------------
1959-10-05 1.0 9.8 -5.8-11.7 71.8- 2.0 1.3---- 0.0------------
1959-10-04 5.1 10.9 1.0 6.0 68.5- 4.0 4.0---- 0.0------------
1959-10-03 10.7 19.4 -0.4 -4.0 81.0- 6.7 2.0---- 2.0------------
1959-10-02 7.9 18.9 1.0 -1.5 84.3- 1.3 1.0---- 0.0------------
1959-10-01 12.7 16.1 4.0 -0.1 68.0- 5.3 3.0---- 0.0------------
1959-09-30 7.4 14.0 3.0 -0.8 77.0- 3.7 1.3---- 0.0------------
1959-09-29 7.7 13.5 4.2 2.0 77.3- 4.3 3.0---- 0.0------------
1959-09-28 8.5 11.8 6.4 5.2 71.8- 6.7 7.3---- 0.5------------
1959-09-27 10.0 18.6 4.6 1.0 74.0- 6.7 1.7---- 0.0------------
1959-09-26 10.3 18.1 -0.5 -4.4 66.0- 3.0 1.0---- 0.0------------
1959-09-25 6.6 16.1 2.7 0.3 80.5- 1.3 2.0---- 0.0------------
1959-09-24 10.3 15.8 6.6 4.9 79.0- 6.3 3.0---- 1.0------------
1959-09-23 13.9 18.9 8.5 4.7 73.8- 5.0 5.0---- 1.2------------
1959-09-22 13.4 16.8 9.8 4.2 69.0- 5.3 4.0---- 0.0------------
1959-09-21 12.5 21.4 3.8 -0.6 74.8- 5.7 2.0---- 0.0------------
1959-09-20 13.7 20.8 9.8 8.0 65.8- 4.3 2.7---- 0.0------------
1959-09-19 13.7 20.5 2.5 -2.7 57.5- 7.0 3.0---- 0.0------------
1959-09-18 10.6 17.8 2.5 -0.9 63.3- 3.0 4.0---- 0.0------------
1959-09-17 8.3 16.2 0.4 -4.0 61.8- 1.0 2.7---- 0.0------------
1959-09-16 8.9 17.6 5.0 1.4 77.8- 3.0 4.0---- 2.2------------
1959-09-15 13.8 20.7 3.3 -1.0 61.3- 4.3 2.3---- 0.0------------
1959-09-14 11.8 17.7 9.0 6.1 64.5- 4.0 3.3---- 0.0------------
1959-09-13 15.9 22.0 6.5 3.8 65.0- 6.7 3.0---- 0.1------------
1959-09-12 14.6 24.8 8.6 3.9 72.5- 4.7 1.7---- 0.0------------
1959-09-11 16.4 22.9 9.4 6.3 66.8- 2.7 2.7---- 0.0------------
1959-09-10 15.0 23.8 3.3 -0.6 63.8- 0.3 1.7---- 0.0------------
1959-09-09 15.0 21.5 10.6 7.5 68.8- 1.0 2.0---- 0.0------------
1959-09-08 15.6 21.5 5.1 0.9 69.8- 7.0 2.7---- 0.0------------
1959-09-07 12.1 21.8 7.3 3.9 79.8- 1.0 1.7---- 0.0------------
1959-09-06 13.4 19.7 8.3 5.2 73.3- 3.7 2.7---- 0.0------------
1959-09-05 13.8 19.2 10.3 7.0 69.5- 4.7 2.0---- 0.0------------
1959-09-04 14.0 18.4 7.9 3.3 80.3- 4.7 2.0---- 0.0------------
1959-09-03 14.1 19.3 8.8 4.2 77.8- 4.3 4.3---- 0.0------------
1959-09-02 13.5 18.1 9.1 6.6 81.8- 7.0 1.7---- 2.1------------
1959-09-01 11.9 17.4 5.6 1.9 78.8- 7.0 2.7---- 0.6------------
1959-08-31 12.0 17.3 7.0 4.8 76.5- 4.7 2.3---- 1.6------------
1959-08-30 12.1 15.8 6.0 3.1 75.3- 6.7 4.3---- 1.0------------
1959-08-29 11.0 15.6 5.5 2.8 71.5- 2.0 3.0---- 0.1------------
1959-08-28 11.6 17.1 7.3 1.6 81.3- 5.0 3.7---- 2.3------------
1959-08-27 16.3 22.4 14.3 12.9 56.3- 3.3 5.0---- 0.0------------
1959-08-26 20.5 23.7 19.4 19.0 64.8- 5.7 6.7---- 0.0------------
1959-08-25 23.5 28.3 15.4 11.0 64.8- 6.7 5.3---- 0.0------------
1959-08-24 23.8 32.1 12.7 9.4 63.0- 0.7 1.3---- 0.0------------
1959-08-23 22.8 30.9 13.1 8.7 63.0- 0.3 1.3---- 0.0------------
1959-08-22 21.8 29.3 11.6 7.2 64.0- 1.0 2.3---- 0.0------------
1959-08-21 20.9 28.6 11.1 7.1 62.5- 0.3 2.3---- 0.0------------
1959-08-20 20.4 27.8 12.6 7.9 70.0- 2.7 2.3---- 0.0------------
1959-08-19 19.6 27.4 12.8 7.7 67.0- 2.7 3.3---- 0.0------------
1959-08-18 21.0 28.1 13.8 9.5 62.0- 3.3 4.3---- 1.0------------
1959-08-17 19.6 25.7 15.2 11.3 73.0- 4.3 3.3---- 0.1------------
1959-08-16 19.6 26.1 9.7 4.8 55.8- 2.3 3.3---- 0.0------------
1959-08-15 20.0 26.7 14.8 13.0 48.3- 2.0 3.7---- 0.0------------
1959-08-14 21.8 26.7 16.0 13.8 47.8- 5.0 7.0---- 0.0------------
1959-08-13 22.3 28.1 16.7 13.9 65.0- 2.0 5.0---- 0.0------------
1959-08-12 23.5 29.1 15.7 13.3 61.5- 4.0 4.0---- 0.0------------
171.4 ms

 

Źródłem pochodzenia danych jest Instytut Meteorologii i Gospodarki Wodnej – Państwowy Instytut Badawczy. Dane Instytutu Meteorologii i Gospodarki Wodnej – Państwowego Instytutu Badawczego zostały przetworzone.

Dane źródłowe można odnaleźć na stronie https://dane.imgw.pl